sensor_id;sensor_type;location;lat;lon;timestamp;P1;durP1;ratioP1;P2;durP2;ratioP2
71366;SDS011;60030;52.274;8.040;2022-07-17T00:02:00;5.03;;;1.77;;
71366;SDS011;60030;52.274;8.040;2022-07-17T00:04:27;5.40;;;1.20;;
71366;SDS011;60030;52.274;8.040;2022-07-17T00:06:54;2.70;;;1.40;;
71366;SDS011;60030;52.274;8.040;2022-07-17T00:09:21;4.38;;;1.63;;
71366;SDS011;60030;52.274;8.040;2022-07-17T00:11:50;2.60;;;1.50;;
71366;SDS011;60030;52.274;8.040;2022-07-17T00:14:17;5.80;;;1.77;;
71366;SDS011;60030;52.274;8.040;2022-07-17T00:16:44;6.07;;;1.98;;
71366;SDS011;60030;52.274;8.040;2022-07-17T00:19:11;9.83;;;4.93;;
71366;SDS011;60030;52.274;8.040;2022-07-17T00:21:38;13.97;;;5.73;;
71366;SDS011;60030;52.274;8.040;2022-07-17T00:24:05;11.15;;;4.78;;
71366;SDS011;60030;52.274;8.040;2022-07-17T00:26:33;6.85;;;3.83;;
71366;SDS011;60030;52.274;8.040;2022-07-17T00:29:03;4.73;;;2.23;;
71366;SDS011;60030;52.274;8.040;2022-07-17T00:31:30;4.07;;;1.67;;
71366;SDS011;60030;52.274;8.040;2022-07-17T00:33:57;4.13;;;1.53;;
71366;SDS011;60030;52.274;8.040;2022-07-17T00:36:24;3.47;;;1.50;;
71366;SDS011;60030;52.274;8.040;2022-07-17T00:38:51;5.63;;;1.47;;
71366;SDS011;60030;52.274;8.040;2022-07-17T00:41:19;6.13;;;1.60;;
71366;SDS011;60030;52.274;8.040;2022-07-17T00:43:46;2.80;;;1.13;;
71366;SDS011;60030;52.274;8.040;2022-07-17T00:46:14;9.23;;;1.53;;
71366;SDS011;60030;52.274;8.040;2022-07-17T00:48:41;4.90;;;1.50;;
71366;SDS011;60030;52.274;8.040;2022-07-17T00:51:08;5.53;;;1.50;;
71366;SDS011;60030;52.274;8.040;2022-07-17T00:53:36;10.77;;;5.60;;
71366;SDS011;60030;52.274;8.040;2022-07-17T00:56:04;11.87;;;4.80;;
71366;SDS011;60030;52.274;8.040;2022-07-17T00:58:33;4.87;;;1.80;;
71366;SDS011;60030;52.274;8.040;2022-07-17T01:01:02;4.13;;;1.80;;
71366;SDS011;60030;52.274;8.040;2022-07-17T01:03:33;5.77;;;2.07;;
71366;SDS011;60030;52.274;8.040;2022-07-17T01:06:01;4.30;;;1.77;;
71366;SDS011;60030;52.274;8.040;2022-07-17T01:08:28;4.40;;;2.20;;
71366;SDS011;60030;52.274;8.040;2022-07-17T01:10:55;3.60;;;1.20;;
71366;SDS011;60030;52.274;8.040;2022-07-17T01:13:22;6.50;;;1.40;;
71366;SDS011;60030;52.274;8.040;2022-07-17T01:15:50;6.80;;;3.20;;
71366;SDS011;60030;52.274;8.040;2022-07-17T01:18:17;6.33;;;4.63;;
71366;SDS011;60030;52.274;8.040;2022-07-17T01:20:47;6.37;;;3.50;;
71366;SDS011;60030;52.274;8.040;2022-07-17T01:23:17;17.27;;;9.53;;
71366;SDS011;60030;52.274;8.040;2022-07-17T01:25:45;8.10;;;5.70;;
71366;SDS011;60030;52.274;8.040;2022-07-17T01:28:13;7.47;;;4.00;;
71366;SDS011;60030;52.274;8.040;2022-07-17T01:30:44;4.60;;;1.70;;
71366;SDS011;60030;52.274;8.040;2022-07-17T01:33:13;2.73;;;1.40;;
71366;SDS011;60030;52.274;8.040;2022-07-17T01:35:40;6.33;;;1.33;;
71366;SDS011;60030;52.274;8.040;2022-07-17T01:38:07;4.30;;;1.40;;
71366;SDS011;60030;52.274;8.040;2022-07-17T01:40:36;4.10;;;1.40;;
71366;SDS011;60030;52.274;8.040;2022-07-17T01:43:03;4.73;;;1.30;;
71366;SDS011;60030;52.274;8.040;2022-07-17T01:45:30;4.37;;;1.30;;
71366;SDS011;60030;52.274;8.040;2022-07-17T01:47:57;4.00;;;1.73;;
71366;SDS011;60030;52.274;8.040;2022-07-17T01:50:24;2.73;;;1.17;;
71366;SDS011;60030;52.274;8.040;2022-07-17T01:52:51;2.73;;;1.50;;
71366;SDS011;60030;52.274;8.040;2022-07-17T01:55:18;3.27;;;1.30;;
71366;SDS011;60030;52.274;8.040;2022-07-17T01:57:47;2.80;;;1.40;;
71366;SDS011;60030;52.274;8.040;2022-07-17T02:00:15;2.60;;;1.93;;
71366;SDS011;60030;52.274;8.040;2022-07-17T02:02:43;2.40;;;1.80;;
71366;SDS011;60030;52.274;8.040;2022-07-17T02:05:10;3.63;;;1.50;;
71366;SDS011;60030;52.274;8.040;2022-07-17T02:07:37;4.13;;;1.80;;
71366;SDS011;60030;52.274;8.040;2022-07-17T02:10:06;4.87;;;2.00;;
71366;SDS011;60030;52.274;8.040;2022-07-17T02:12:34;4.13;;;1.80;;
71366;SDS011;60030;52.274;8.040;2022-07-17T02:15:03;4.37;;;1.97;;
71366;SDS011;60030;52.274;8.040;2022-07-17T02:17:30;4.57;;;2.00;;
71366;SDS011;60030;52.274;8.040;2022-07-17T02:19:57;5.90;;;1.63;;
71366;SDS011;60030;52.274;8.040;2022-07-17T02:22:24;6.90;;;1.90;;
71366;SDS011;60030;52.274;8.040;2022-07-17T02:24:51;3.90;;;1.43;;
71366;SDS011;60030;52.274;8.040;2022-07-17T02:27:18;5.63;;;1.80;;
71366;SDS011;60030;52.274;8.040;2022-07-17T02:29:45;2.80;;;1.73;;
71366;SDS011;60030;52.274;8.040;2022-07-17T02:32:14;2.87;;;1.40;;
71366;SDS011;60030;52.274;8.040;2022-07-17T02:34:41;3.53;;;1.47;;
71366;SDS011;60030;52.274;8.040;2022-07-17T02:37:08;2.37;;;1.37;;
71366;SDS011;60030;52.274;8.040;2022-07-17T02:39:35;4.47;;;1.90;;
71366;SDS011;60030;52.274;8.040;2022-07-17T02:42:17;2.33;;;1.47;;
71366;SDS011;60030;52.274;8.040;2022-07-17T02:44:46;4.07;;;1.60;;
71366;SDS011;60030;52.274;8.040;2022-07-17T02:47:19;3.90;;;1.47;;
71366;SDS011;60030;52.274;8.040;2022-07-17T02:49:47;5.17;;;1.70;;
71366;SDS011;60030;52.274;8.040;2022-07-17T02:52:14;4.57;;;1.63;;
71366;SDS011;60030;52.274;8.040;2022-07-17T02:54:42;3.00;;;1.67;;
71366;SDS011;60030;52.274;8.040;2022-07-17T02:57:09;2.33;;;1.40;;
71366;SDS011;60030;52.274;8.040;2022-07-17T02:59:36;4.03;;;1.60;;
71366;SDS011;60030;52.274;8.040;2022-07-17T03:02:03;8.37;;;1.83;;
71366;SDS011;60030;52.274;8.040;2022-07-17T03:04:32;4.90;;;1.40;;
71366;SDS011;60030;52.274;8.040;2022-07-17T03:06:59;4.83;;;1.67;;
71366;SDS011;60030;52.274;8.040;2022-07-17T03:09:26;4.30;;;1.40;;
71366;SDS011;60030;52.274;8.040;2022-07-17T03:11:53;4.13;;;1.60;;
71366;SDS011;60030;52.274;8.040;2022-07-17T03:14:20;2.23;;;1.53;;
71366;SDS011;60030;52.274;8.040;2022-07-17T03:16:47;3.37;;;1.93;;
71366;SDS011;60030;52.274;8.040;2022-07-17T03:19:14;4.00;;;1.47;;
71366;SDS011;60030;52.274;8.040;2022-07-17T03:21:43;3.67;;;1.60;;
71366;SDS011;60030;52.274;8.040;2022-07-17T03:24:10;3.10;;;1.57;;
71366;SDS011;60030;52.274;8.040;2022-07-17T03:26:37;2.87;;;1.43;;
71366;SDS011;60030;52.274;8.040;2022-07-17T03:29:04;4.23;;;1.50;;
71366;SDS011;60030;52.274;8.040;2022-07-17T03:31:31;3.70;;;1.50;;
71366;SDS011;60030;52.274;8.040;2022-07-17T03:33:58;3.90;;;1.70;;
71366;SDS011;60030;52.274;8.040;2022-07-17T03:36:25;3.53;;;1.30;;
71366;SDS011;60030;52.274;8.040;2022-07-17T03:38:54;4.17;;;1.50;;
71366;SDS011;60030;52.274;8.040;2022-07-17T03:41:21;3.97;;;1.60;;
71366;SDS011;60030;52.274;8.040;2022-07-17T03:43:48;2.97;;;1.77;;
71366;SDS011;60030;52.274;8.040;2022-07-17T03:46:15;3.30;;;1.80;;
71366;SDS011;60030;52.274;8.040;2022-07-17T03:48:42;3.40;;;1.80;;
71366;SDS011;60030;52.274;8.040;2022-07-17T03:51:09;4.97;;;1.70;;
71366;SDS011;60030;52.274;8.040;2022-07-17T03:53:36;3.30;;;1.50;;
71366;SDS011;60030;52.274;8.040;2022-07-17T03:56:05;2.90;;;1.43;;
71366;SDS011;60030;52.274;8.040;2022-07-17T03:58:32;3.20;;;1.60;;
71366;SDS011;60030;52.274;8.040;2022-07-17T04:00:59;3.47;;;1.80;;
71366;SDS011;60030;52.274;8.040;2022-07-17T04:03:27;2.83;;;1.50;;
71366;SDS011;60030;52.274;8.040;2022-07-17T04:05:54;4.37;;;1.50;;
71366;SDS011;60030;52.274;8.040;2022-07-17T04:08:21;3.27;;;1.63;;
71366;SDS011;60030;52.274;8.040;2022-07-17T04:10:48;4.37;;;1.50;;
71366;SDS011;60030;52.274;8.040;2022-07-17T04:13:17;5.83;;;2.30;;
71366;SDS011;60030;52.274;8.040;2022-07-17T04:15:44;4.27;;;1.90;;
71366;SDS011;60030;52.274;8.040;2022-07-17T04:18:23;5.83;;;2.20;;
71366;SDS011;60030;52.274;8.040;2022-07-17T04:20:53;5.00;;;1.70;;
71366;SDS011;60030;52.274;8.040;2022-07-17T04:23:21;3.63;;;2.10;;
71366;SDS011;60030;52.274;8.040;2022-07-17T04:25:48;3.60;;;1.60;;
71366;SDS011;60030;52.274;8.040;2022-07-17T04:28:15;3.50;;;1.90;;
71366;SDS011;60030;52.274;8.040;2022-07-17T04:30:44;3.07;;;1.80;;
71366;SDS011;60030;52.274;8.040;2022-07-17T04:33:11;5.70;;;2.00;;
71366;SDS011;60030;52.274;8.040;2022-07-17T04:35:39;4.03;;;1.93;;
71366;SDS011;60030;52.274;8.040;2022-07-17T04:38:07;4.57;;;2.43;;
71366;SDS011;60030;52.274;8.040;2022-07-17T04:40:36;3.40;;;1.80;;
71366;SDS011;60030;52.274;8.040;2022-07-17T04:43:04;4.03;;;1.70;;
71366;SDS011;60030;52.274;8.040;2022-07-17T04:45:33;3.27;;;1.73;;
71366;SDS011;60030;52.274;8.040;2022-07-17T04:48:02;4.10;;;2.00;;
71366;SDS011;60030;52.274;8.040;2022-07-17T04:50:29;5.33;;;1.83;;
71366;SDS011;60030;52.274;8.040;2022-07-17T04:52:56;3.50;;;1.97;;
71366;SDS011;60030;52.274;8.040;2022-07-17T04:55:23;6.13;;;2.17;;
71366;SDS011;60030;52.274;8.040;2022-07-17T04:57:50;4.20;;;2.03;;
71366;SDS011;60030;52.274;8.040;2022-07-17T05:00:17;4.47;;;2.17;;
71366;SDS011;60030;52.274;8.040;2022-07-17T05:02:45;4.30;;;2.10;;
71366;SDS011;60030;52.274;8.040;2022-07-17T05:05:13;5.20;;;2.10;;
71366;SDS011;60030;52.274;8.040;2022-07-17T05:07:41;3.20;;;2.33;;
71366;SDS011;60030;52.274;8.040;2022-07-17T05:10:08;4.20;;;2.10;;
71366;SDS011;60030;52.274;8.040;2022-07-17T05:12:36;4.80;;;2.10;;
71366;SDS011;60030;52.274;8.040;2022-07-17T05:15:03;7.17;;;2.20;;
71366;SDS011;60030;52.274;8.040;2022-07-17T05:17:31;4.27;;;2.10;;
71366;SDS011;60030;52.274;8.040;2022-07-17T05:19:58;4.07;;;2.10;;
71366;SDS011;60030;52.274;8.040;2022-07-17T05:22:27;5.77;;;2.90;;
71366;SDS011;60030;52.274;8.040;2022-07-17T05:24:54;6.63;;;2.30;;
71366;SDS011;60030;52.274;8.040;2022-07-17T05:27:21;4.23;;;2.47;;
71366;SDS011;60030;52.274;8.040;2022-07-17T05:29:48;3.73;;;2.20;;
71366;SDS011;60030;52.274;8.040;2022-07-17T05:32:15;5.70;;;2.10;;
71366;SDS011;60030;52.274;8.040;2022-07-17T05:34:42;5.13;;;2.03;;
71366;SDS011;60030;52.274;8.040;2022-07-17T05:37:09;5.50;;;2.00;;
71366;SDS011;60030;52.274;8.040;2022-07-17T05:39:38;6.83;;;2.30;;
71366;SDS011;60030;52.274;8.040;2022-07-17T05:42:05;6.70;;;2.17;;
71366;SDS011;60030;52.274;8.040;2022-07-17T05:44:32;5.47;;;2.40;;
71366;SDS011;60030;52.274;8.040;2022-07-17T05:46:59;3.23;;;2.10;;
71366;SDS011;60030;52.274;8.040;2022-07-17T05:49:26;6.60;;;2.10;;
71366;SDS011;60030;52.274;8.040;2022-07-17T05:51:53;5.07;;;2.17;;
71366;SDS011;60030;52.274;8.040;2022-07-17T05:54:21;4.90;;;1.90;;
71366;SDS011;60030;52.274;8.040;2022-07-17T05:56:50;6.53;;;2.07;;
71366;SDS011;60030;52.274;8.040;2022-07-17T05:59:17;4.70;;;1.80;;
71366;SDS011;60030;52.274;8.040;2022-07-17T06:01:44;7.83;;;2.07;;
71366;SDS011;60030;52.274;8.040;2022-07-17T06:04:11;4.47;;;1.93;;
71366;SDS011;60030;52.274;8.040;2022-07-17T06:06:38;6.03;;;1.80;;
71366;SDS011;60030;52.274;8.040;2022-07-17T06:09:06;4.27;;;1.90;;
71366;SDS011;60030;52.274;8.040;2022-07-17T06:11:33;5.13;;;2.00;;
71366;SDS011;60030;52.274;8.040;2022-07-17T06:14:01;10.03;;;2.30;;
71366;SDS011;60030;52.274;8.040;2022-07-17T06:16:28;4.70;;;2.30;;
71366;SDS011;60030;52.274;8.040;2022-07-17T06:18:55;8.10;;;2.10;;
71366;SDS011;60030;52.274;8.040;2022-07-17T06:21:22;7.23;;;2.07;;
71366;SDS011;60030;52.274;8.040;2022-07-17T06:23:49;6.40;;;1.77;;
71366;SDS011;60030;52.274;8.040;2022-07-17T06:26:16;4.13;;;1.87;;
71366;SDS011;60030;52.274;8.040;2022-07-17T06:28:44;3.83;;;1.70;;
71366;SDS011;60030;52.274;8.040;2022-07-17T06:31:12;4.80;;;1.90;;
71366;SDS011;60030;52.274;8.040;2022-07-17T06:33:39;6.53;;;1.97;;
71366;SDS011;60030;52.274;8.040;2022-07-17T06:36:06;3.90;;;1.40;;
71366;SDS011;60030;52.274;8.040;2022-07-17T06:38:34;8.33;;;1.80;;
71366;SDS011;60030;52.274;8.040;2022-07-17T06:41:01;3.17;;;1.60;;
71366;SDS011;60030;52.274;8.040;2022-07-17T06:43:28;3.07;;;1.50;;
71366;SDS011;60030;52.274;8.040;2022-07-17T06:45:55;4.30;;;1.73;;
71366;SDS011;60030;52.274;8.040;2022-07-17T06:48:24;5.63;;;1.40;;
71366;SDS011;60030;52.274;8.040;2022-07-17T06:50:51;4.23;;;1.30;;
71366;SDS011;60030;52.274;8.040;2022-07-17T06:53:18;3.30;;;1.07;;
71366;SDS011;60030;52.274;8.040;2022-07-17T06:55:46;5.13;;;1.43;;
71366;SDS011;60030;52.274;8.040;2022-07-17T06:58:13;3.20;;;1.37;;
71366;SDS011;60030;52.274;8.040;2022-07-17T07:00:40;4.63;;;1.10;;
71366;SDS011;60030;52.274;8.040;2022-07-17T07:03:07;8.03;;;1.50;;
71366;SDS011;60030;52.274;8.040;2022-07-17T07:05:36;5.33;;;1.93;;
71366;SDS011;60030;52.274;8.040;2022-07-17T07:08:03;1.83;;;1.00;;
71366;SDS011;60030;52.274;8.040;2022-07-17T07:10:31;3.10;;;1.80;;
71366;SDS011;60030;52.274;8.040;2022-07-17T07:12:58;7.17;;;1.70;;
71366;SDS011;60030;52.274;8.040;2022-07-17T07:15:25;5.17;;;1.30;;
71366;SDS011;60030;52.274;8.040;2022-07-17T07:17:52;9.57;;;1.70;;
71366;SDS011;60030;52.274;8.040;2022-07-17T07:20:19;4.80;;;1.70;;
71366;SDS011;60030;52.274;8.040;2022-07-17T07:22:48;4.13;;;1.30;;
71366;SDS011;60030;52.274;8.040;2022-07-17T07:25:15;3.93;;;1.10;;
71366;SDS011;60030;52.274;8.040;2022-07-17T07:27:42;3.60;;;1.30;;
71366;SDS011;60030;52.274;8.040;2022-07-17T07:30:09;8.07;;;1.20;;
71366;SDS011;60030;52.274;8.040;2022-07-17T07:32:37;4.93;;;1.43;;
71366;SDS011;60030;52.274;8.040;2022-07-17T07:35:04;5.13;;;1.40;;
71366;SDS011;60030;52.274;8.040;2022-07-17T07:37:32;6.40;;;1.30;;
71366;SDS011;60030;52.274;8.040;2022-07-17T07:40:00;3.43;;;1.23;;
71366;SDS011;60030;52.274;8.040;2022-07-17T07:42:28;2.57;;;1.10;;
71366;SDS011;60030;52.274;8.040;2022-07-17T07:44:55;7.57;;;1.17;;
71366;SDS011;60030;52.274;8.040;2022-07-17T07:47:22;2.40;;;1.20;;
71366;SDS011;60030;52.274;8.040;2022-07-17T07:49:49;4.83;;;1.50;;
71366;SDS011;60030;52.274;8.040;2022-07-17T07:52:17;5.20;;;1.60;;
71366;SDS011;60030;52.274;8.040;2022-07-17T07:54:44;3.47;;;1.70;;
71366;SDS011;60030;52.274;8.040;2022-07-17T07:57:12;3.40;;;1.03;;
71366;SDS011;60030;52.274;8.040;2022-07-17T07:59:39;3.07;;;1.30;;
71366;SDS011;60030;52.274;8.040;2022-07-17T08:02:07;4.17;;;1.47;;
71366;SDS011;60030;52.274;8.040;2022-07-17T08:04:34;6.17;;;1.67;;
71366;SDS011;60030;52.274;8.040;2022-07-17T08:07:01;2.93;;;1.70;;
71366;SDS011;60030;52.274;8.040;2022-07-17T08:09:28;3.73;;;1.30;;
71366;SDS011;60030;52.274;8.040;2022-07-17T08:11:55;2.13;;;1.23;;
71366;SDS011;60030;52.274;8.040;2022-07-17T08:14:23;7.93;;;1.30;;
71366;SDS011;60030;52.274;8.040;2022-07-17T08:16:50;5.03;;;1.30;;
71366;SDS011;60030;52.274;8.040;2022-07-17T08:19:17;6.50;;;1.77;;
71366;SDS011;60030;52.274;8.040;2022-07-17T08:21:46;4.67;;;1.33;;
71366;SDS011;60030;52.274;8.040;2022-07-17T08:24:13;2.67;;;1.10;;
71366;SDS011;60030;52.274;8.040;2022-07-17T08:26:41;2.10;;;1.30;;
71366;SDS011;60030;52.274;8.040;2022-07-17T08:29:08;7.67;;;1.33;;
71366;SDS011;60030;52.274;8.040;2022-07-17T08:31:37;3.63;;;1.40;;
71366;SDS011;60030;52.274;8.040;2022-07-17T08:34:04;2.67;;;1.47;;
71366;SDS011;60030;52.274;8.040;2022-07-17T08:36:31;1.90;;;1.30;;
71366;SDS011;60030;52.274;8.040;2022-07-17T08:38:59;4.53;;;1.60;;
71366;SDS011;60030;52.274;8.040;2022-07-17T08:41:26;7.93;;;1.30;;
71366;SDS011;60030;52.274;8.040;2022-07-17T08:43:54;5.27;;;1.50;;
71366;SDS011;60030;52.274;8.040;2022-07-17T08:46:23;10.30;;;4.17;;
71366;SDS011;60030;52.274;8.040;2022-07-17T08:48:54;4.73;;;1.23;;
71366;SDS011;60030;52.274;8.040;2022-07-17T08:51:24;3.87;;;2.10;;
71366;SDS011;60030;52.274;8.040;2022-07-17T08:53:52;3.57;;;1.80;;
71366;SDS011;60030;52.274;8.040;2022-07-17T08:56:20;4.73;;;1.70;;
71366;SDS011;60030;52.274;8.040;2022-07-17T08:58:47;2.33;;;1.50;;
71366;SDS011;60030;52.274;8.040;2022-07-17T09:01:14;5.70;;;1.47;;
71366;SDS011;60030;52.274;8.040;2022-07-17T09:03:53;5.97;;;1.40;;
71366;SDS011;60030;52.274;8.040;2022-07-17T09:06:23;4.37;;;1.30;;
71366;SDS011;60030;52.274;8.040;2022-07-17T09:08:59;5.20;;;1.47;;
71366;SDS011;60030;52.274;8.040;2022-07-17T09:11:27;6.07;;;1.20;;
71366;SDS011;60030;52.274;8.040;2022-07-17T09:13:55;2.53;;;1.17;;
71366;SDS011;60030;52.274;8.040;2022-07-17T09:16:22;4.23;;;1.40;;
71366;SDS011;60030;52.274;8.040;2022-07-17T09:18:50;5.60;;;1.53;;
71366;SDS011;60030;52.274;8.040;2022-07-17T09:21:21;3.33;;;1.20;;
71366;SDS011;60030;52.274;8.040;2022-07-17T09:23:57;3.10;;;1.30;;
71366;SDS011;60030;52.274;8.040;2022-07-17T09:26:26;5.13;;;1.37;;
71366;SDS011;60030;52.274;8.040;2022-07-17T09:28:54;4.13;;;1.40;;
71366;SDS011;60030;52.274;8.040;2022-07-17T09:31:25;2.83;;;1.30;;
71366;SDS011;60030;52.274;8.040;2022-07-17T09:33:52;4.43;;;1.33;;
71366;SDS011;60030;52.274;8.040;2022-07-17T09:36:21;4.67;;;1.60;;
71366;SDS011;60030;52.274;8.040;2022-07-17T09:38:49;3.47;;;1.60;;
71366;SDS011;60030;52.274;8.040;2022-07-17T09:41:19;4.47;;;1.73;;
71366;SDS011;60030;52.274;8.040;2022-07-17T09:43:48;5.23;;;1.40;;
71366;SDS011;60030;52.274;8.040;2022-07-17T09:46:23;3.83;;;1.13;;
71366;SDS011;60030;52.274;8.040;2022-07-17T09:48:52;6.43;;;4.13;;
71366;SDS011;60030;52.274;8.040;2022-07-17T09:51:23;5.70;;;1.43;;
71366;SDS011;60030;52.274;8.040;2022-07-17T09:53:52;2.47;;;1.23;;
71366;SDS011;60030;52.274;8.040;2022-07-17T09:56:21;3.17;;;1.20;;
71366;SDS011;60030;52.274;8.040;2022-07-17T09:58:51;2.13;;;1.10;;
71366;SDS011;60030;52.274;8.040;2022-07-17T10:01:19;2.75;;;1.33;;
71366;SDS011;60030;52.274;8.040;2022-07-17T10:03:47;7.25;;;1.40;;
71366;SDS011;60030;52.274;8.040;2022-07-17T10:06:17;4.57;;;1.10;;
71366;SDS011;60030;52.274;8.040;2022-07-17T10:08:45;3.65;;;1.25;;
71366;SDS011;60030;52.274;8.040;2022-07-17T10:11:13;4.90;;;1.25;;
71366;SDS011;60030;52.274;8.040;2022-07-17T10:13:42;2.83;;;1.13;;
71366;SDS011;60030;52.274;8.040;2022-07-17T10:16:11;3.33;;;1.10;;
71366;SDS011;60030;52.274;8.040;2022-07-17T10:18:39;6.30;;;1.40;;
71366;SDS011;60030;52.274;8.040;2022-07-17T10:21:10;3.95;;;1.48;;
71366;SDS011;60030;52.274;8.040;2022-07-17T10:23:40;1.65;;;1.15;;
71366;SDS011;60030;52.274;8.040;2022-07-17T10:26:09;3.30;;;1.40;;
71366;SDS011;60030;52.274;8.040;2022-07-17T10:28:38;5.28;;;1.52;;
71366;SDS011;60030;52.274;8.040;2022-07-17T10:31:06;5.20;;;1.27;;
71366;SDS011;60030;52.274;8.040;2022-07-17T10:33:33;4.90;;;1.83;;
71366;SDS011;60030;52.274;8.040;2022-07-17T10:36:02;3.55;;;1.30;;
71366;SDS011;60030;52.274;8.040;2022-07-17T10:38:29;2.83;;;1.13;;
71366;SDS011;60030;52.274;8.040;2022-07-17T10:41:06;4.13;;;1.30;;
71366;SDS011;60030;52.274;8.040;2022-07-17T10:43:42;10.35;;;5.32;;
71366;SDS011;60030;52.274;8.040;2022-07-17T10:46:10;10.45;;;6.15;;
71366;SDS011;60030;52.274;8.040;2022-07-17T10:48:38;9.00;;;4.78;;
71366;SDS011;60030;52.274;8.040;2022-07-17T10:51:07;3.85;;;1.92;;
71366;SDS011;60030;52.274;8.040;2022-07-17T10:53:34;3.03;;;1.40;;
71366;SDS011;60030;52.274;8.040;2022-07-17T10:56:02;2.95;;;1.15;;
71366;SDS011;60030;52.274;8.040;2022-07-17T10:58:31;1.70;;;1.15;;
71366;SDS011;60030;52.274;8.040;2022-07-17T11:01:04;3.30;;;1.30;;
71366;SDS011;60030;52.274;8.040;2022-07-17T11:03:36;5.00;;;2.08;;
71366;SDS011;60030;52.274;8.040;2022-07-17T11:06:08;3.45;;;1.50;;
71366;SDS011;60030;52.274;8.040;2022-07-17T11:08:42;5.82;;;1.80;;
71366;SDS011;60030;52.274;8.040;2022-07-17T11:11:10;4.05;;;1.10;;
71366;SDS011;60030;52.274;8.040;2022-07-17T11:13:38;4.57;;;1.30;;
71366;SDS011;60030;52.274;8.040;2022-07-17T11:16:06;3.17;;;1.33;;
71366;SDS011;60030;52.274;8.040;2022-07-17T11:18:34;4.13;;;1.20;;
71366;SDS011;60030;52.274;8.040;2022-07-17T11:21:02;3.67;;;1.27;;
71366;SDS011;60030;52.274;8.040;2022-07-17T11:23:31;2.33;;;1.10;;
71366;SDS011;60030;52.274;8.040;2022-07-17T11:25:59;3.13;;;1.10;;
71366;SDS011;60030;52.274;8.040;2022-07-17T11:28:32;1.67;;;0.82;;
71366;SDS011;60030;52.274;8.040;2022-07-17T11:31:04;1.95;;;1.45;;
71366;SDS011;60030;52.274;8.040;2022-07-17T11:33:46;2.78;;;1.42;;
71366;SDS011;60030;52.274;8.040;2022-07-17T11:36:25;2.17;;;1.50;;
71366;SDS011;60030;52.274;8.040;2022-07-17T11:38:54;5.85;;;1.88;;
71366;SDS011;60030;52.274;8.040;2022-07-17T11:41:29;3.20;;;1.42;;
71366;SDS011;60030;52.274;8.040;2022-07-17T11:43:57;2.88;;;1.10;;
71366;SDS011;60030;52.274;8.040;2022-07-17T11:46:26;1.90;;;1.00;;
71366;SDS011;60030;52.274;8.040;2022-07-17T11:48:54;3.40;;;1.40;;
71366;SDS011;60030;52.274;8.040;2022-07-17T11:51:32;7.70;;;1.40;;
71366;SDS011;60030;52.274;8.040;2022-07-17T11:54:03;4.32;;;1.00;;
71366;SDS011;60030;52.274;8.040;2022-07-17T11:56:31;4.30;;;1.33;;
71366;SDS011;60030;52.274;8.040;2022-07-17T11:58:59;2.92;;;1.23;;
71366;SDS011;60030;52.274;8.040;2022-07-17T12:01:29;2.17;;;1.02;;
71366;SDS011;60030;52.274;8.040;2022-07-17T12:04:04;3.67;;;0.80;;
71366;SDS011;60030;52.274;8.040;2022-07-17T12:06:34;2.47;;;0.88;;
71366;SDS011;60030;52.274;8.040;2022-07-17T12:09:01;4.78;;;1.20;;
71366;SDS011;60030;52.274;8.040;2022-07-17T12:11:28;2.97;;;1.50;;
71366;SDS011;60030;52.274;8.040;2022-07-17T12:14:02;2.75;;;1.40;;
71366;SDS011;60030;52.274;8.040;2022-07-17T12:16:32;3.97;;;1.30;;
71366;SDS011;60030;52.274;8.040;2022-07-17T12:19:03;2.65;;;1.08;;
71366;SDS011;60030;52.274;8.040;2022-07-17T12:21:34;2.88;;;1.00;;
71366;SDS011;60030;52.274;8.040;2022-07-17T12:24:20;4.95;;;1.15;;
71366;SDS011;60030;52.274;8.040;2022-07-17T12:26:49;1.95;;;1.05;;
71366;SDS011;60030;52.274;8.040;2022-07-17T12:29:17;5.30;;;1.20;;
71366;SDS011;60030;52.274;8.040;2022-07-17T12:31:45;3.28;;;0.93;;
71366;SDS011;60030;52.274;8.040;2022-07-17T12:34:12;3.08;;;1.20;;
71366;SDS011;60030;52.274;8.040;2022-07-17T12:36:39;1.77;;;1.33;;
71366;SDS011;60030;52.274;8.040;2022-07-17T12:39:06;1.35;;;0.90;;
71366;SDS011;60030;52.274;8.040;2022-07-17T12:41:33;2.22;;;1.00;;
71366;SDS011;60030;52.274;8.040;2022-07-17T12:44:01;2.45;;;0.90;;
71366;SDS011;60030;52.274;8.040;2022-07-17T12:46:28;1.50;;;0.80;;
71366;SDS011;60030;52.274;8.040;2022-07-17T12:48:56;2.47;;;0.80;;
71366;SDS011;60030;52.274;8.040;2022-07-17T12:51:23;2.08;;;1.00;;
71366;SDS011;60030;52.274;8.040;2022-07-17T12:53:50;2.33;;;0.90;;
71366;SDS011;60030;52.274;8.040;2022-07-17T12:56:17;2.08;;;0.77;;
71366;SDS011;60030;52.274;8.040;2022-07-17T12:58:45;2.40;;;0.90;;
71366;SDS011;60030;52.274;8.040;2022-07-17T13:01:12;2.83;;;1.00;;
71366;SDS011;60030;52.274;8.040;2022-07-17T13:03:39;3.65;;;1.10;;
71366;SDS011;60030;52.274;8.040;2022-07-17T13:06:07;3.35;;;1.00;;
71366;SDS011;60030;52.274;8.040;2022-07-17T13:08:35;3.08;;;1.10;;
71366;SDS011;60030;52.274;8.040;2022-07-17T13:11:03;2.53;;;1.00;;
71366;SDS011;60030;52.274;8.040;2022-07-17T13:13:30;3.22;;;1.05;;
71366;SDS011;60030;52.274;8.040;2022-07-17T13:15:57;2.45;;;0.95;;
71366;SDS011;60030;52.274;8.040;2022-07-17T13:18:25;2.55;;;1.08;;
71366;SDS011;60030;52.274;8.040;2022-07-17T13:20:52;2.65;;;1.27;;
71366;SDS011;60030;52.274;8.040;2022-07-17T13:23:20;8.30;;;4.70;;
71366;SDS011;60030;52.274;8.040;2022-07-17T13:25:48;9.10;;;5.50;;
71366;SDS011;60030;52.274;8.040;2022-07-17T13:28:15;4.80;;;1.35;;
71366;SDS011;60030;52.274;8.040;2022-07-17T13:30:42;2.75;;;1.25;;
71366;SDS011;60030;52.274;8.040;2022-07-17T13:33:09;3.33;;;1.23;;
71366;SDS011;60030;52.274;8.040;2022-07-17T13:35:36;3.22;;;1.25;;
71366;SDS011;60030;52.274;8.040;2022-07-17T13:38:03;3.10;;;1.00;;
71366;SDS011;60030;52.274;8.040;2022-07-17T13:40:33;6.10;;;1.27;;
71366;SDS011;60030;52.274;8.040;2022-07-17T13:43:01;2.10;;;1.23;;
71366;SDS011;60030;52.274;8.040;2022-07-17T13:45:29;2.20;;;0.93;;
71366;SDS011;60030;52.274;8.040;2022-07-17T13:47:56;4.15;;;1.25;;
71366;SDS011;60030;52.274;8.040;2022-07-17T13:50:25;2.85;;;0.93;;
71366;SDS011;60030;52.274;8.040;2022-07-17T13:52:53;1.85;;;0.90;;
71366;SDS011;60030;52.274;8.040;2022-07-17T13:55:20;2.17;;;1.02;;
71366;SDS011;60030;52.274;8.040;2022-07-17T13:57:48;1.45;;;0.90;;
71366;SDS011;60030;52.274;8.040;2022-07-17T14:00:15;3.17;;;1.30;;
71366;SDS011;60030;52.274;8.040;2022-07-17T14:02:43;2.08;;;1.02;;
71366;SDS011;60030;52.274;8.040;2022-07-17T14:05:11;1.92;;;0.98;;
71366;SDS011;60030;52.274;8.040;2022-07-17T14:07:38;2.17;;;1.00;;
71366;SDS011;60030;52.274;8.040;2022-07-17T14:10:06;1.85;;;1.10;;
71366;SDS011;60030;52.274;8.040;2022-07-17T14:12:33;3.05;;;1.20;;
71366;SDS011;60030;52.274;8.040;2022-07-17T14:15:02;2.97;;;1.17;;
71366;SDS011;60030;52.274;8.040;2022-07-17T14:17:29;2.85;;;0.93;;
71366;SDS011;60030;52.274;8.040;2022-07-17T14:19:56;1.88;;;0.90;;
71366;SDS011;60030;52.274;8.040;2022-07-17T14:22:23;1.70;;;0.98;;
71366;SDS011;60030;52.274;8.040;2022-07-17T14:24:50;3.58;;;1.38;;
71366;SDS011;60030;52.274;8.040;2022-07-17T14:27:17;3.10;;;1.20;;
71366;SDS011;60030;52.274;8.040;2022-07-17T14:29:45;5.25;;;1.35;;
71366;SDS011;60030;52.274;8.040;2022-07-17T14:32:13;1.42;;;0.77;;
71366;SDS011;60030;52.274;8.040;2022-07-17T14:34:40;4.00;;;1.23;;
71366;SDS011;60030;52.274;8.040;2022-07-17T14:37:07;1.63;;;1.13;;
71366;SDS011;60030;52.274;8.040;2022-07-17T14:39:34;2.45;;;0.80;;
71366;SDS011;60030;52.274;8.040;2022-07-17T14:42:02;3.38;;;1.02;;
71366;SDS011;60030;52.274;8.040;2022-07-17T14:44:29;2.70;;;1.00;;
71366;SDS011;60030;52.274;8.040;2022-07-17T14:46:58;3.67;;;1.05;;
71366;SDS011;60030;52.274;8.040;2022-07-17T14:49:26;2.28;;;1.30;;
71366;SDS011;60030;52.274;8.040;2022-07-17T14:51:54;1.33;;;1.10;;
71366;SDS011;60030;52.274;8.040;2022-07-17T14:54:21;2.10;;;1.50;;